sensor_id;sensor_type;location;lat;lon;timestamp;temperature;humidity
15930;DHT22;8064;51.142;4.780;2023-04-01T00:00:17;10.60;99.90
15930;DHT22;8064;51.142;4.780;2023-04-01T00:02:43;10.60;99.90
15930;DHT22;8064;51.142;4.780;2023-04-01T00:05:10;10.60;99.90
15930;DHT22;8064;51.142;4.780;2023-04-01T00:07:36;10.60;99.90
15930;DHT22;8064;51.142;4.780;2023-04-01T00:10:04;10.50;99.90
15930;DHT22;8064;51.142;4.780;2023-04-01T00:12:30;10.50;99.90
15930;DHT22;8064;51.142;4.780;2023-04-01T00:14:55;10.50;99.90
15930;DHT22;8064;51.142;4.780;2023-04-01T00:17:21;10.50;99.90
15930;DHT22;8064;51.142;4.780;2023-04-01T00:19:48;10.50;99.90
15930;DHT22;8064;51.142;4.780;2023-04-01T00:22:14;10.50;99.90
15930;DHT22;8064;51.142;4.780;2023-04-01T00:24:40;10.50;99.90
15930;DHT22;8064;51.142;4.780;2023-04-01T00:27:06;10.50;99.90
15930;DHT22;8064;51.142;4.780;2023-04-01T00:29:33;10.50;99.90
15930;DHT22;8064;51.142;4.780;2023-04-01T00:32:00;10.50;99.90
15930;DHT22;8064;51.142;4.780;2023-04-01T00:34:26;10.50;99.90
15930;DHT22;8064;51.142;4.780;2023-04-01T00:36:52;10.50;99.90
15930;DHT22;8064;51.142;4.780;2023-04-01T00:39:19;10.50;99.90
15930;DHT22;8064;51.142;4.780;2023-04-01T00:41:44;10.50;99.90
15930;DHT22;8064;51.142;4.780;2023-04-01T00:44:18;10.50;99.90
15930;DHT22;8064;51.142;4.780;2023-04-01T00:46:45;10.50;99.90
15930;DHT22;8064;51.142;4.780;2023-04-01T00:49:11;10.50;99.90
15930;DHT22;8064;51.142;4.780;2023-04-01T00:51:38;10.50;99.90
15930;DHT22;8064;51.142;4.780;2023-04-01T00:54:05;10.50;99.90
15930;DHT22;8064;51.142;4.780;2023-04-01T00:59:23;10.60;99.90
15930;DHT22;8064;51.142;4.780;2023-04-01T01:01:50;10.50;99.90
15930;DHT22;8064;51.142;4.780;2023-04-01T01:04:30;10.60;99.90
15930;DHT22;8064;51.142;4.780;2023-04-01T01:10:29;10.50;99.90
15930;DHT22;8064;51.142;4.780;2023-04-01T01:15:56;10.50;99.90
15930;DHT22;8064;51.142;4.780;2023-04-01T01:18:39;10.50;99.90
15930;DHT22;8064;51.142;4.780;2023-04-01T01:24:13;10.50;99.90
15930;DHT22;8064;51.142;4.780;2023-04-01T01:32:32;10.60;99.90
15930;DHT22;8064;51.142;4.780;2023-04-01T01:37:54;10.60;99.90
15930;DHT22;8064;51.142;4.780;2023-04-01T01:40:21;10.60;99.90
15930;DHT22;8064;51.142;4.780;2023-04-01T01:42:51;10.60;99.90
15930;DHT22;8064;51.142;4.780;2023-04-01T01:45:20;10.60;99.90
15930;DHT22;8064;51.142;4.780;2023-04-01T01:47:48;10.60;99.90
15930;DHT22;8064;51.142;4.780;2023-04-01T01:50:15;10.60;99.90
15930;DHT22;8064;51.142;4.780;2023-04-01T01:52:42;10.60;99.90
15930;DHT22;8064;51.142;4.780;2023-04-01T01:55:28;10.60;99.90
15930;DHT22;8064;51.142;4.780;2023-04-01T01:57:57;10.60;99.90
15930;DHT22;8064;51.142;4.780;2023-04-01T02:00:24;10.60;99.90
15930;DHT22;8064;51.142;4.780;2023-04-01T02:02:50;10.60;99.90
15930;DHT22;8064;51.142;4.780;2023-04-01T02:05:21;10.60;99.90
15930;DHT22;8064;51.142;4.780;2023-04-01T02:07:55;10.60;99.90
15930;DHT22;8064;51.142;4.780;2023-04-01T02:10:25;10.60;99.90
15930;DHT22;8064;51.142;4.780;2023-04-01T02:12:57;10.60;99.90
15930;DHT22;8064;51.142;4.780;2023-04-01T02:15:27;10.60;99.90
15930;DHT22;8064;51.142;4.780;2023-04-01T02:17:56;10.70;99.90
15930;DHT22;8064;51.142;4.780;2023-04-01T02:20:23;10.60;99.90
15930;DHT22;8064;51.142;4.780;2023-04-01T02:22:52;10.60;99.90
15930;DHT22;8064;51.142;4.780;2023-04-01T02:25:22;10.60;99.90
15930;DHT22;8064;51.142;4.780;2023-04-01T02:27:49;10.60;99.90
15930;DHT22;8064;51.142;4.780;2023-04-01T02:30:16;10.60;99.90
15930;DHT22;8064;51.142;4.780;2023-04-01T02:32:42;10.60;99.90
15930;DHT22;8064;51.142;4.780;2023-04-01T02:35:10;10.60;99.90
15930;DHT22;8064;51.142;4.780;2023-04-01T02:37:37;10.60;99.90
15930;DHT22;8064;51.142;4.780;2023-04-01T02:40:06;10.60;99.90
15930;DHT22;8064;51.142;4.780;2023-04-01T02:42:33;10.50;99.90
15930;DHT22;8064;51.142;4.780;2023-04-01T02:44:59;10.50;99.90
15930;DHT22;8064;51.142;4.780;2023-04-01T02:47:25;10.50;99.90
15930;DHT22;8064;51.142;4.780;2023-04-01T02:49:51;10.50;99.90
15930;DHT22;8064;51.142;4.780;2023-04-01T02:52:24;10.50;99.90
15930;DHT22;8064;51.142;4.780;2023-04-01T02:54:50;10.50;99.90
15930;DHT22;8064;51.142;4.780;2023-04-01T02:57:15;10.50;99.90
15930;DHT22;8064;51.142;4.780;2023-04-01T02:59:41;10.50;99.90
15930;DHT22;8064;51.142;4.780;2023-04-01T03:02:07;10.40;99.90
15930;DHT22;8064;51.142;4.780;2023-04-01T03:04:33;10.40;99.90
15930;DHT22;8064;51.142;4.780;2023-04-01T03:06:58;10.40;99.90
15930;DHT22;8064;51.142;4.780;2023-04-01T03:09:24;10.40;99.90
15930;DHT22;8064;51.142;4.780;2023-04-01T03:11:50;10.40;99.90
15930;DHT22;8064;51.142;4.780;2023-04-01T03:14:16;10.40;99.90
15930;DHT22;8064;51.142;4.780;2023-04-01T03:16:41;10.40;99.90
15930;DHT22;8064;51.142;4.780;2023-04-01T03:19:07;10.40;99.90
15930;DHT22;8064;51.142;4.780;2023-04-01T03:21:33;10.40;99.90
15930;DHT22;8064;51.142;4.780;2023-04-01T03:23:59;10.40;99.90
15930;DHT22;8064;51.142;4.780;2023-04-01T03:26:24;10.40;99.90
15930;DHT22;8064;51.142;4.780;2023-04-01T03:28:52;10.40;99.90
15930;DHT22;8064;51.142;4.780;2023-04-01T03:31:18;10.40;99.90
15930;DHT22;8064;51.142;4.780;2023-04-01T03:33:44;10.50;99.90
15930;DHT22;8064;51.142;4.780;2023-04-01T03:36:10;10.50;99.90
15930;DHT22;8064;51.142;4.780;2023-04-01T03:38:38;10.50;99.90
15930;DHT22;8064;51.142;4.780;2023-04-01T03:41:05;10.40;99.90
15930;DHT22;8064;51.142;4.780;2023-04-01T03:43:32;10.50;99.90
15930;DHT22;8064;51.142;4.780;2023-04-01T03:45:58;10.50;99.90
15930;DHT22;8064;51.142;4.780;2023-04-01T03:48:24;10.50;99.90
15930;DHT22;8064;51.142;4.780;2023-04-01T03:50:51;10.50;99.90
15930;DHT22;8064;51.142;4.780;2023-04-01T03:53:17;10.40;99.90
15930;DHT22;8064;51.142;4.780;2023-04-01T03:55:43;10.40;99.90
15930;DHT22;8064;51.142;4.780;2023-04-01T03:58:09;10.40;99.90
15930;DHT22;8064;51.142;4.780;2023-04-01T04:00:35;10.40;99.90
15930;DHT22;8064;51.142;4.780;2023-04-01T04:03:01;10.40;99.90
15930;DHT22;8064;51.142;4.780;2023-04-01T04:05:27;10.40;99.90
15930;DHT22;8064;51.142;4.780;2023-04-01T04:07:53;10.40;99.90
15930;DHT22;8064;51.142;4.780;2023-04-01T04:10:19;10.40;99.90
15930;DHT22;8064;51.142;4.780;2023-04-01T04:12:46;10.40;99.90
15930;DHT22;8064;51.142;4.780;2023-04-01T04:15:11;10.40;99.90
15930;DHT22;8064;51.142;4.780;2023-04-01T04:17:37;10.40;99.90
15930;DHT22;8064;51.142;4.780;2023-04-01T04:20:04;10.40;99.90
15930;DHT22;8064;51.142;4.780;2023-04-01T04:22:29;10.40;99.90
15930;DHT22;8064;51.142;4.780;2023-04-01T04:24:55;10.40;99.90
15930;DHT22;8064;51.142;4.780;2023-04-01T04:27:21;10.40;99.90
15930;DHT22;8064;51.142;4.780;2023-04-01T04:29:47;10.40;99.90
15930;DHT22;8064;51.142;4.780;2023-04-01T04:32:13;10.40;99.90
15930;DHT22;8064;51.142;4.780;2023-04-01T04:34:38;10.40;99.90
15930;DHT22;8064;51.142;4.780;2023-04-01T04:37:04;10.40;99.90
15930;DHT22;8064;51.142;4.780;2023-04-01T04:39:30;10.40;99.90
15930;DHT22;8064;51.142;4.780;2023-04-01T04:41:55;10.40;99.90
15930;DHT22;8064;51.142;4.780;2023-04-01T04:44:21;10.40;99.90
15930;DHT22;8064;51.142;4.780;2023-04-01T04:46:47;10.40;99.90
15930;DHT22;8064;51.142;4.780;2023-04-01T04:49:13;10.40;99.90
15930;DHT22;8064;51.142;4.780;2023-04-01T04:51:39;10.40;99.90
15930;DHT22;8064;51.142;4.780;2023-04-01T04:54:06;10.40;99.90
15930;DHT22;8064;51.142;4.780;2023-04-01T04:56:32;10.40;99.90
15930;DHT22;8064;51.142;4.780;2023-04-01T04:58:58;10.40;99.90
15930;DHT22;8064;51.142;4.780;2023-04-01T05:01:24;10.40;99.90
15930;DHT22;8064;51.142;4.780;2023-04-01T05:03:50;10.40;99.90
15930;DHT22;8064;51.142;4.780;2023-04-01T05:06:17;10.40;99.90
15930;DHT22;8064;51.142;4.780;2023-04-01T05:08:44;10.40;99.90
15930;DHT22;8064;51.142;4.780;2023-04-01T05:11:13;10.40;99.90
15930;DHT22;8064;51.142;4.780;2023-04-01T05:13:39;10.40;99.90
15930;DHT22;8064;51.142;4.780;2023-04-01T05:16:09;10.40;99.90
15930;DHT22;8064;51.142;4.780;2023-04-01T05:18:35;10.40;99.90
15930;DHT22;8064;51.142;4.780;2023-04-01T05:21:01;10.40;99.90
15930;DHT22;8064;51.142;4.780;2023-04-01T05:23:27;10.40;99.90
15930;DHT22;8064;51.142;4.780;2023-04-01T05:25:52;10.40;99.90
15930;DHT22;8064;51.142;4.780;2023-04-01T05:28:19;10.40;99.90
15930;DHT22;8064;51.142;4.780;2023-04-01T05:30:46;10.40;99.90
15930;DHT22;8064;51.142;4.780;2023-04-01T05:33:12;10.40;99.90
15930;DHT22;8064;51.142;4.780;2023-04-01T05:35:39;10.40;99.90
15930;DHT22;8064;51.142;4.780;2023-04-01T05:38:05;10.40;99.90
15930;DHT22;8064;51.142;4.780;2023-04-01T05:40:32;10.40;99.90
15930;DHT22;8064;51.142;4.780;2023-04-01T05:42:59;10.40;99.90
15930;DHT22;8064;51.142;4.780;2023-04-01T05:45:25;10.40;99.90
15930;DHT22;8064;51.142;4.780;2023-04-01T05:47:51;10.40;99.90
15930;DHT22;8064;51.142;4.780;2023-04-01T05:50:16;10.40;99.90
15930;DHT22;8064;51.142;4.780;2023-04-01T05:52:42;10.40;99.90
15930;DHT22;8064;51.142;4.780;2023-04-01T05:55:09;10.40;99.90
15930;DHT22;8064;51.142;4.780;2023-04-01T05:57:34;10.40;99.90
15930;DHT22;8064;51.142;4.780;2023-04-01T06:00:00;10.40;99.90
15930;DHT22;8064;51.142;4.780;2023-04-01T06:02:26;10.40;99.90
15930;DHT22;8064;51.142;4.780;2023-04-01T06:19:47;10.50;99.90
15930;DHT22;8064;51.142;4.780;2023-04-01T06:22:42;10.50;99.90
15930;DHT22;8064;51.142;4.780;2023-04-01T06:25:30;10.50;99.90
15930;DHT22;8064;51.142;4.780;2023-04-01T06:37:20;10.60;99.90
15930;DHT22;8064;51.142;4.780;2023-04-01T06:42:51;10.60;99.90
15930;DHT22;8064;51.142;4.780;2023-04-01T06:45:25;10.60;99.90
15930;DHT22;8064;51.142;4.780;2023-04-01T06:48:14;10.70;99.90
15930;DHT22;8064;51.142;4.780;2023-04-01T06:50:45;10.70;99.90
15930;DHT22;8064;51.142;4.780;2023-04-01T06:53:35;10.70;99.90
15930;DHT22;8064;51.142;4.780;2023-04-01T06:56:09;10.70;99.90
15930;DHT22;8064;51.142;4.780;2023-04-01T06:58:42;10.70;99.90
15930;DHT22;8064;51.142;4.780;2023-04-01T07:01:16;10.80;99.90
15930;DHT22;8064;51.142;4.780;2023-04-01T07:03:47;10.70;99.90
15930;DHT22;8064;51.142;4.780;2023-04-01T07:06:25;10.80;99.90
15930;DHT22;8064;51.142;4.780;2023-04-01T07:08:54;10.80;99.90
15930;DHT22;8064;51.142;4.780;2023-04-01T07:11:27;10.80;99.90
15930;DHT22;8064;51.142;4.780;2023-04-01T07:14:02;10.80;99.90
15930;DHT22;8064;51.142;4.780;2023-04-01T07:19:22;10.80;99.90
15930;DHT22;8064;51.142;4.780;2023-04-01T07:21:54;10.80;99.90
15930;DHT22;8064;51.142;4.780;2023-04-01T07:24:26;10.80;99.90
15930;DHT22;8064;51.142;4.780;2023-04-01T07:26:55;10.80;99.90
15930;DHT22;8064;51.142;4.780;2023-04-01T07:29:21;10.80;99.90
15930;DHT22;8064;51.142;4.780;2023-04-01T07:34:50;10.80;99.90
15930;DHT22;8064;51.142;4.780;2023-04-01T07:43:13;10.90;99.90
15930;DHT22;8064;51.142;4.780;2023-04-01T07:45:51;10.90;99.90
15930;DHT22;8064;51.142;4.780;2023-04-01T07:48:45;10.90;99.90
15930;DHT22;8064;51.142;4.780;2023-04-01T07:51:49;10.90;99.90
15930;DHT22;8064;51.142;4.780;2023-04-01T07:54:38;10.90;99.90
15930;DHT22;8064;51.142;4.780;2023-04-01T07:57:39;11.00;99.90
15930;DHT22;8064;51.142;4.780;2023-04-01T08:21:42;11.00;99.90
15930;DHT22;8064;51.142;4.780;2023-04-01T08:33:19;11.10;99.90
15930;DHT22;8064;51.142;4.780;2023-04-01T08:40:59;11.20;99.90
15930;DHT22;8064;51.142;4.780;2023-04-01T08:52:57;11.40;99.90
15930;DHT22;8064;51.142;4.780;2023-04-01T09:00:57;11.40;99.90
15930;DHT22;8064;51.142;4.780;2023-04-01T09:03:38;11.40;99.90
15930;DHT22;8064;51.142;4.780;2023-04-01T09:06:29;11.40;99.90
15930;DHT22;8064;51.142;4.780;2023-04-01T09:15:23;11.40;99.90
15930;DHT22;8064;51.142;4.780;2023-04-01T09:18:09;11.40;99.90
15930;DHT22;8064;51.142;4.780;2023-04-01T09:26:38;11.50;99.90
15930;DHT22;8064;51.142;4.780;2023-04-01T09:35:05;11.50;99.90
15930;DHT22;8064;51.142;4.780;2023-04-01T09:37:36;11.60;99.90
15930;DHT22;8064;51.142;4.780;2023-04-01T09:51:36;11.70;99.90
15930;DHT22;8064;51.142;4.780;2023-04-01T11:01:52;12.40;99.90
15930;DHT22;8064;51.142;4.780;2023-04-01T11:13:29;12.40;99.90
15930;DHT22;8064;51.142;4.780;2023-04-01T11:22:10;12.30;99.90
15930;DHT22;8064;51.142;4.780;2023-04-01T11:33:28;12.10;99.90
15930;DHT22;8064;51.142;4.780;2023-04-01T11:39:10;12.00;99.90
15930;DHT22;8064;51.142;4.780;2023-04-01T11:44:22;11.90;99.90
15930;DHT22;8064;51.142;4.780;2023-04-01T11:47:10;11.90;99.90
15930;DHT22;8064;51.142;4.780;2023-04-01T11:50:11;11.90;99.90
15930;DHT22;8064;51.142;4.780;2023-04-01T11:53:05;11.90;99.90
15930;DHT22;8064;51.142;4.780;2023-04-01T12:00:57;11.90;99.90
15930;DHT22;8064;51.142;4.780;2023-04-01T12:06:51;11.90;99.90
15930;DHT22;8064;51.142;4.780;2023-04-01T12:14:31;12.10;99.90
15930;DHT22;8064;51.142;4.780;2023-04-01T12:20:23;12.20;99.90
15930;DHT22;8064;51.142;4.780;2023-04-01T12:22:56;12.30;99.90
15930;DHT22;8064;51.142;4.780;2023-04-01T12:28:52;12.40;99.90
15930;DHT22;8064;51.142;4.780;2023-04-01T12:31:53;12.50;99.90
15930;DHT22;8064;51.142;4.780;2023-04-01T12:34:43;12.50;99.90
15930;DHT22;8064;51.142;4.780;2023-04-01T12:48:52;12.60;99.90
15930;DHT22;8064;51.142;4.780;2023-04-01T12:57:24;12.60;99.90
15930;DHT22;8064;51.142;4.780;2023-04-01T13:00:20;12.60;99.90
15930;DHT22;8064;51.142;4.780;2023-04-01T13:08:27;12.60;99.90
15930;DHT22;8064;51.142;4.780;2023-04-01T13:11:07;12.60;99.90
15930;DHT22;8064;51.142;4.780;2023-04-01T13:13:47;12.50;99.90
15930;DHT22;8064;51.142;4.780;2023-04-01T13:16:35;12.50;99.90
15930;DHT22;8064;51.142;4.780;2023-04-01T13:19:19;12.50;99.90
15930;DHT22;8064;51.142;4.780;2023-04-01T13:22:13;12.40;99.90
15930;DHT22;8064;51.142;4.780;2023-04-01T13:25:00;12.40;99.90
15930;DHT22;8064;51.142;4.780;2023-04-01T13:30:43;12.40;99.90
15930;DHT22;8064;51.142;4.780;2023-04-01T13:47:43;12.40;99.90
15930;DHT22;8064;51.142;4.780;2023-04-01T13:50:28;12.30;99.90
15930;DHT22;8064;51.142;4.780;2023-04-01T13:58:49;12.20;99.90
15930;DHT22;8064;51.142;4.780;2023-04-01T14:04:10;12.20;99.90
15930;DHT22;8064;51.142;4.780;2023-04-01T14:06:45;12.10;99.90
15930;DHT22;8064;51.142;4.780;2023-04-01T14:20:33;12.00;99.90
15930;DHT22;8064;51.142;4.780;2023-04-01T14:26:10;12.00;99.90
15930;DHT22;8064;51.142;4.780;2023-04-01T14:42:45;12.00;99.90
15930;DHT22;8064;51.142;4.780;2023-04-01T14:48:23;12.10;99.90
15930;DHT22;8064;51.142;4.780;2023-04-01T14:50:53;12.10;99.90
15930;DHT22;8064;51.142;4.780;2023-04-01T14:53:31;12.20;99.90
15930;DHT22;8064;51.142;4.780;2023-04-01T14:56:01;12.30;99.90
15930;DHT22;8064;51.142;4.780;2023-04-01T14:58:44;12.30;99.90
15930;DHT22;8064;51.142;4.780;2023-04-01T15:07:31;12.50;99.90
15930;DHT22;8064;51.142;4.780;2023-04-01T15:15:58;12.60;99.90
15930;DHT22;8064;51.142;4.780;2023-04-01T15:18:32;12.70;99.90
15930;DHT22;8064;51.142;4.780;2023-04-01T15:23:46;12.70;99.90
15930;DHT22;8064;51.142;4.780;2023-04-01T15:26:19;12.70;99.90
15930;DHT22;8064;51.142;4.780;2023-04-01T15:31:39;12.60;99.90
15930;DHT22;8064;51.142;4.780;2023-04-01T15:34:30;12.50;99.90
15930;DHT22;8064;51.142;4.780;2023-04-01T15:39:57;12.40;99.90
15930;DHT22;8064;51.142;4.780;2023-04-01T15:42:42;12.30;99.90
15930;DHT22;8064;51.142;4.780;2023-04-01T15:51:21;12.30;99.90
15930;DHT22;8064;51.142;4.780;2023-04-01T16:02:47;12.10;99.90
15930;DHT22;8064;51.142;4.780;2023-04-01T16:05:33;12.00;99.90
15930;DHT22;8064;51.142;4.780;2023-04-01T16:08:32;12.00;99.90
15930;DHT22;8064;51.142;4.780;2023-04-01T16:13:41;11.90;99.90
15930;DHT22;8064;51.142;4.780;2023-04-01T16:16:19;11.90;99.90
15930;DHT22;8064;51.142;4.780;2023-04-01T16:18:52;11.80;99.90
15930;DHT22;8064;51.142;4.780;2023-04-01T16:21:34;11.80;99.90
15930;DHT22;8064;51.142;4.780;2023-04-01T16:24:15;11.70;99.90
15930;DHT22;8064;51.142;4.780;2023-04-01T16:26:58;11.70;99.90
15930;DHT22;8064;51.142;4.780;2023-04-01T16:29:28;11.70;99.90
15930;DHT22;8064;51.142;4.780;2023-04-01T16:34:33;11.60;99.90
15930;DHT22;8064;51.142;4.780;2023-04-01T16:37:07;11.60;99.90
15930;DHT22;8064;51.142;4.780;2023-04-01T16:42:51;11.50;99.90
15930;DHT22;8064;51.142;4.780;2023-04-01T16:48:13;11.50;99.90
15930;DHT22;8064;51.142;4.780;2023-04-01T16:50:48;11.50;99.90
15930;DHT22;8064;51.142;4.780;2023-04-01T16:56:09;11.50;99.90
15930;DHT22;8064;51.142;4.780;2023-04-01T16:58:43;11.40;99.90
15930;DHT22;8064;51.142;4.780;2023-04-01T17:01:22;11.40;99.90
15930;DHT22;8064;51.142;4.780;2023-04-01T17:03:53;11.40;99.90
15930;DHT22;8064;51.142;4.780;2023-04-01T17:12:26;11.40;99.90
15930;DHT22;8064;51.142;4.780;2023-04-01T17:15:16;11.40;99.90
15930;DHT22;8064;51.142;4.780;2023-04-01T17:20:47;11.30;99.90
15930;DHT22;8064;51.142;4.780;2023-04-01T17:26:28;11.30;99.90
15930;DHT22;8064;51.142;4.780;2023-04-01T17:29:20;11.30;99.90
15930;DHT22;8064;51.142;4.780;2023-04-01T17:32:09;11.30;99.90
15930;DHT22;8064;51.142;4.780;2023-04-01T17:37:24;11.30;99.90
15930;DHT22;8064;51.142;4.780;2023-04-01T17:45:41;11.40;99.90
15930;DHT22;8064;51.142;4.780;2023-04-01T17:48:21;11.40;99.90
15930;DHT22;8064;51.142;4.780;2023-04-01T17:53:59;11.40;99.90
15930;DHT22;8064;51.142;4.780;2023-04-01T17:59:49;11.30;99.90
15930;DHT22;8064;51.142;4.780;2023-04-01T18:02:28;11.30;99.90
15930;DHT22;8064;51.142;4.780;2023-04-01T18:05:02;11.30;99.90
15930;DHT22;8064;51.142;4.780;2023-04-01T18:13:50;11.20;99.90
15930;DHT22;8064;51.142;4.780;2023-04-01T18:19:20;11.10;99.90
15930;DHT22;8064;51.142;4.780;2023-04-01T18:27:44;11.00;99.90
15930;DHT22;8064;51.142;4.780;2023-04-01T18:30:14;11.00;99.90
15930;DHT22;8064;51.142;4.780;2023-04-01T18:38:13;11.00;99.90
15930;DHT22;8064;51.142;4.780;2023-04-01T18:41:03;10.90;99.90
15930;DHT22;8064;51.142;4.780;2023-04-01T18:43:39;10.90;99.90
15930;DHT22;8064;51.142;4.780;2023-04-01T18:46:19;10.90;99.90
15930;DHT22;8064;51.142;4.780;2023-04-01T18:49:14;10.90;99.90
15930;DHT22;8064;51.142;4.780;2023-04-01T18:57:38;10.90;99.90
15930;DHT22;8064;51.142;4.780;2023-04-01T19:00:26;10.90;99.90
15930;DHT22;8064;51.142;4.780;2023-04-01T19:03:00;10.90;99.90
15930;DHT22;8064;51.142;4.780;2023-04-01T19:05:44;10.90;99.90
15930;DHT22;8064;51.142;4.780;2023-04-01T19:08:31;10.90;99.90
15930;DHT22;8064;51.142;4.780;2023-04-01T19:11:19;10.90;99.90
15930;DHT22;8064;51.142;4.780;2023-04-01T19:16:35;10.90;99.90
15930;DHT22;8064;51.142;4.780;2023-04-01T19:19:27;10.90;99.90
15930;DHT22;8064;51.142;4.780;2023-04-01T19:22:00;10.90;99.90
15930;DHT22;8064;51.142;4.780;2023-04-01T19:27:24;10.90;99.90
15930;DHT22;8064;51.142;4.780;2023-04-01T19:38:40;10.90;99.90
15930;DHT22;8064;51.142;4.780;2023-04-01T19:44:05;11.00;99.90
15930;DHT22;8064;51.142;4.780;2023-04-01T19:46:37;11.00;99.90
15930;DHT22;8064;51.142;4.780;2023-04-01T20:00:23;11.10;99.90
15930;DHT22;8064;51.142;4.780;2023-04-01T20:05:45;11.10;99.90
15930;DHT22;8064;51.142;4.780;2023-04-01T20:16:12;11.20;99.90
15930;DHT22;8064;51.142;4.780;2023-04-01T20:18:58;11.30;99.90
15930;DHT22;8064;51.142;4.780;2023-04-01T20:27:09;11.30;99.90
15930;DHT22;8064;51.142;4.780;2023-04-01T20:38:25;11.30;99.90
15930;DHT22;8064;51.142;4.780;2023-04-01T20:41:05;11.30;99.90
15930;DHT22;8064;51.142;4.780;2023-04-01T20:46:35;11.30;99.90
15930;DHT22;8064;51.142;4.780;2023-04-01T20:52:25;11.30;99.90
15930;DHT22;8064;51.142;4.780;2023-04-01T21:03:45;11.20;99.90
15930;DHT22;8064;51.142;4.780;2023-04-01T21:06:27;11.20;99.90
15930;DHT22;8064;51.142;4.780;2023-04-01T21:31:44;11.10;99.90
15930;DHT22;8064;51.142;4.780;2023-04-01T21:40:00;11.00;99.90
15930;DHT22;8064;51.142;4.780;2023-04-01T22:11:38;10.90;99.90
15930;DHT22;8064;51.142;4.780;2023-04-01T22:14:20;10.90;99.90
15930;DHT22;8064;51.142;4.780;2023-04-01T22:17:05;10.90;99.90
15930;DHT22;8064;51.142;4.780;2023-04-01T22:19:56;10.80;99.90
15930;DHT22;8064;51.142;4.780;2023-04-01T22:31:00;10.80;99.90
15930;DHT22;8064;51.142;4.780;2023-04-01T22:36:37;10.80;99.90
15930;DHT22;8064;51.142;4.780;2023-04-01T22:39:07;10.70;99.90
15930;DHT22;8064;51.142;4.780;2023-04-01T22:41:58;10.70;99.90
15930;DHT22;8064;51.142;4.780;2023-04-01T22:52:43;10.70;99.90
15930;DHT22;8064;51.142;4.780;2023-04-01T22:58:05;10.60;99.90
15930;DHT22;8064;51.142;4.780;2023-04-01T23:00:33;10.60;99.90
15930;DHT22;8064;51.142;4.780;2023-04-01T23:03:06;10.60;99.90
15930;DHT22;8064;51.142;4.780;2023-04-01T23:05:39;10.60;99.90
15930;DHT22;8064;51.142;4.780;2023-04-01T23:10:56;10.60;99.90
15930;DHT22;8064;51.142;4.780;2023-04-01T23:13:29;10.60;99.90
15930;DHT22;8064;51.142;4.780;2023-04-01T23:15:57;10.60;99.90
15930;DHT22;8064;51.142;4.780;2023-04-01T23:21:18;10.60;99.90
15930;DHT22;8064;51.142;4.780;2023-04-01T23:26:39;10.50;99.90
15930;DHT22;8064;51.142;4.780;2023-04-01T23:29:14;10.50;99.90
15930;DHT22;8064;51.142;4.780;2023-04-01T23:31:42;10.40;99.90
15930;DHT22;8064;51.142;4.780;2023-04-01T23:34:24;10.40;99.90
15930;DHT22;8064;51.142;4.780;2023-04-01T23:36:53;10.30;99.90
15930;DHT22;8064;51.142;4.780;2023-04-01T23:39:40;10.30;99.90
15930;DHT22;8064;51.142;4.780;2023-04-01T23:44:58;10.20;99.90
15930;DHT22;8064;51.142;4.780;2023-04-01T23:47:30;10.20;99.90
15930;DHT22;8064;51.142;4.780;2023-04-01T23:50:00;10.10;99.90
15930;DHT22;8064;51.142;4.780;2023-04-01T23:52:31;10.10;99.90
15930;DHT22;8064;51.142;4.780;2023-04-01T23:55:17;10.10;99.90
